createdAt,value
2023-01-07T00:01:32.422Z,5.60
2023-01-07T00:04:00.828Z,8.27
2023-01-07T00:06:29.439Z,7.60
2023-01-07T00:08:57.960Z,5.53
2023-01-07T00:11:26.484Z,7.50
2023-01-07T00:13:54.779Z,7.43
2023-01-07T00:16:26.021Z,8.90
2023-01-07T00:18:54.359Z,6.37
2023-01-07T00:21:22.810Z,8.20
2023-01-07T00:23:50.629Z,6.40
2023-01-07T00:26:20.372Z,7.53
2023-01-07T00:28:49.793Z,7.87
2023-01-07T00:31:18.646Z,6.20
2023-01-07T00:33:51.888Z,6.90
2023-01-07T00:36:20.204Z,7.20
2023-01-07T00:38:48.461Z,5.23
2023-01-07T00:41:16.372Z,6.00
2023-01-07T00:43:44.172Z,8.50
2023-01-07T00:46:11.921Z,7.07
2023-01-07T00:48:39.696Z,6.30
2023-01-07T00:51:10.228Z,5.20
2023-01-07T00:53:37.933Z,7.43
2023-01-07T00:56:06.060Z,8.27
2023-01-07T00:58:33.945Z,6.50
2023-01-07T01:01:02.467Z,5.93
2023-01-07T01:03:30.930Z,6.53
2023-01-07T01:06:02.897Z,6.77
2023-01-07T01:08:32.254Z,5.93
2023-01-07T01:11:04.114Z,5.87
2023-01-07T01:13:32.027Z,7.23
2023-01-07T01:16:00.283Z,7.80
2023-01-07T01:18:28.049Z,10.27
2023-01-07T01:20:56.162Z,10.50
2023-01-07T01:23:23.864Z,7.23
2023-01-07T01:25:52.864Z,5.10
2023-01-07T01:28:20.571Z,5.40
2023-01-07T01:30:55.088Z,6.40
2023-01-07T01:33:23.287Z,6.20
2023-01-07T01:35:50.965Z,5.93
2023-01-07T01:38:19.062Z,6.40
2023-01-07T01:40:46.813Z,6.10
2023-01-07T01:43:30.592Z,9.60
2023-01-07T01:45:58.711Z,6.30
2023-01-07T01:48:27.105Z,7.30
2023-01-07T01:50:54.796Z,8.00
2023-01-07T01:53:24.383Z,7.20
2023-01-07T01:55:54.217Z,6.20
2023-01-07T01:58:24.556Z,5.63
2023-01-07T02:00:53.680Z,5.73
2023-01-07T02:03:21.792Z,6.50
2023-01-07T02:05:49.481Z,5.67
2023-01-07T02:08:22.139Z,5.70
2023-01-07T02:10:50.635Z,5.57
2023-01-07T02:13:26.733Z,5.37
2023-01-07T02:16:00.406Z,5.53
2023-01-07T02:18:41.986Z,5.73
2023-01-07T02:21:17.948Z,5.97
2023-01-07T02:24:22.994Z,4.93
2023-01-07T02:27:16.731Z,5.50
2023-01-07T02:30:21.132Z,5.50
2023-01-07T02:33:11.852Z,5.47
2023-01-07T02:36:02.459Z,5.10
2023-01-07T02:38:34.387Z,5.63
2023-01-07T02:41:07.162Z,5.90
2023-01-07T02:43:38.293Z,4.50
2023-01-07T02:46:10.649Z,5.17
2023-01-07T02:48:39.712Z,5.90
2023-01-07T02:51:07.388Z,5.40
2023-01-07T02:53:35.512Z,5.17
2023-01-07T02:56:11.267Z,5.07
2023-01-07T02:58:51.037Z,4.87
2023-01-07T03:01:29.460Z,4.47
2023-01-07T03:04:07.268Z,5.03
2023-01-07T03:06:42.362Z,5.37
2023-01-07T03:09:13.033Z,5.27
2023-01-07T03:11:43.181Z,4.67
2023-01-07T03:14:12.928Z,4.60
2023-01-07T03:16:42.658Z,5.43
2023-01-07T03:19:16.441Z,5.47
2023-01-07T03:21:44.216Z,5.27
2023-01-07T03:24:12.135Z,5.40
2023-01-07T03:26:41.012Z,5.53
2023-01-07T03:29:09.869Z,6.30
2023-01-07T03:31:37.839Z,7.10
2023-01-07T03:34:07.344Z,6.47
2023-01-07T03:36:39.005Z,5.83
2023-01-07T03:39:07.082Z,6.37
2023-01-07T03:42:04.133Z,7.07
2023-01-07T03:44:32.239Z,8.20
2023-01-07T03:47:00.025Z,5.63
2023-01-07T03:49:27.793Z,6.40
2023-01-07T03:51:57.543Z,7.00
2023-01-07T03:54:25.442Z,6.43
2023-01-07T03:56:53.540Z,6.27
2023-01-07T03:59:21.379Z,6.17
2023-01-07T04:01:49.331Z,6.87
2023-01-07T04:04:17.471Z,6.20
2023-01-07T04:06:45.434Z,7.93
2023-01-07T04:09:15.662Z,5.50
2023-01-07T04:11:43.478Z,6.27
2023-01-07T04:14:11.329Z,6.20
2023-01-07T04:16:39.042Z,6.20
2023-01-07T04:19:07.322Z,5.70
2023-01-07T04:21:35.190Z,5.67
2023-01-07T04:24:03.094Z,5.40
2023-01-07T04:26:33.887Z,5.47
2023-01-07T04:29:01.670Z,5.40
2023-01-07T04:31:29.373Z,5.70
2023-01-07T04:33:57.076Z,5.10
2023-01-07T04:36:24.756Z,8.20
2023-01-07T04:38:52.600Z,5.20
2023-01-07T04:41:20.285Z,5.17
2023-01-07T04:43:49.299Z,5.83
2023-01-07T04:46:17.486Z,5.87
2023-01-07T04:48:45.192Z,5.10
2023-01-07T04:51:12.911Z,5.17
2023-01-07T04:53:40.596Z,6.80
2023-01-07T04:56:09.339Z,4.73
2023-01-07T04:58:37.086Z,5.50
2023-01-07T05:01:07.364Z,4.80
2023-01-07T05:03:35.382Z,4.77
2023-01-07T05:06:03.768Z,7.97
2023-01-07T05:08:31.742Z,4.77
2023-01-07T05:10:59.908Z,4.40
2023-01-07T05:13:27.624Z,4.67
2023-01-07T05:15:55.316Z,4.50
2023-01-07T05:18:24.357Z,5.23
2023-01-07T05:20:52.041Z,4.63
2023-01-07T05:23:20.444Z,4.73
2023-01-07T05:25:48.136Z,4.40
2023-01-07T05:28:16.362Z,5.07
2023-01-07T05:30:44.076Z,5.33
2023-01-07T05:33:12.336Z,4.83
2023-01-07T05:35:41.349Z,4.43
2023-01-07T05:38:09.404Z,4.47
2023-01-07T05:40:37.092Z,4.97
2023-01-07T05:43:04.779Z,4.10
2023-01-07T05:45:32.977Z,5.00
2023-01-07T05:48:00.671Z,5.67
2023-01-07T05:50:28.885Z,5.10
2023-01-07T05:52:57.912Z,4.70
2023-01-07T05:55:26.023Z,5.07
2023-01-07T05:57:53.711Z,4.33
2023-01-07T06:00:21.931Z,4.50
2023-01-07T06:02:49.617Z,4.60
2023-01-07T06:05:17.661Z,4.27
2023-01-07T06:07:45.940Z,4.40
2023-01-07T06:10:15.255Z,4.47
2023-01-07T06:12:43.721Z,4.40
2023-01-07T06:15:12.356Z,4.60
2023-01-07T06:17:40.248Z,5.20
2023-01-07T06:20:09.242Z,4.40
2023-01-07T06:22:37.387Z,4.37
2023-01-07T06:25:05.461Z,4.47
2023-01-07T06:27:35.232Z,3.90
2023-01-07T06:30:04.276Z,4.47
2023-01-07T06:32:32.552Z,4.27
2023-01-07T06:35:00.477Z,4.27
2023-01-07T06:37:28.872Z,4.30
2023-01-07T06:39:58.265Z,4.27
2023-01-07T06:42:26.681Z,4.50
2023-01-07T06:44:55.784Z,3.67
2023-01-07T06:47:23.556Z,4.50
2023-01-07T06:49:51.628Z,4.00
2023-01-07T06:52:19.385Z,5.00
2023-01-07T06:54:48.568Z,4.50
2023-01-07T06:57:16.484Z,3.80
2023-01-07T06:59:44.615Z,4.07
2023-01-07T07:02:18.034Z,3.97
2023-01-07T07:04:45.785Z,6.57
2023-01-07T07:07:13.517Z,3.80
2023-01-07T07:09:41.577Z,4.00
2023-01-07T07:12:09.331Z,3.90
2023-01-07T07:14:37.096Z,3.90
2023-01-07T07:17:04.798Z,3.93
2023-01-07T07:19:33.833Z,3.87
2023-01-07T07:22:03.929Z,3.97
2023-01-07T07:24:32.332Z,3.87
2023-01-07T07:27:01.392Z,3.90
2023-01-07T07:29:29.061Z,4.00
2023-01-07T07:31:57.415Z,3.83
2023-01-07T07:34:25.259Z,3.70
2023-01-07T07:36:54.272Z,4.00
2023-01-07T07:39:21.951Z,3.90
2023-01-07T07:41:50.402Z,4.00
2023-01-07T07:44:18.238Z,3.93
2023-01-07T07:46:46.576Z,3.63
2023-01-07T07:49:14.670Z,3.73
2023-01-07T07:51:42.564Z,3.90
2023-01-07T07:54:11.817Z,4.03
2023-01-07T07:56:39.648Z,3.83
2023-01-07T07:59:07.374Z,4.10
2023-01-07T08:01:37.225Z,4.53
2023-01-07T08:04:05.526Z,4.43
2023-01-07T08:06:34.315Z,4.30
2023-01-07T08:09:02.586Z,4.67
2023-01-07T08:11:31.953Z,4.70
2023-01-07T08:14:00.138Z,3.77
2023-01-07T08:16:28.227Z,3.70
2023-01-07T08:18:56.644Z,4.10
2023-01-07T08:21:24.563Z,3.80
2023-01-07T08:23:52.910Z,3.40
2023-01-07T08:26:20.813Z,3.97
2023-01-07T08:28:50.129Z,4.10
2023-01-07T08:31:18.196Z,2.97
2023-01-07T08:33:46.123Z,3.73
2023-01-07T08:36:22.469Z,3.73
2023-01-07T08:38:52.128Z,4.00
2023-01-07T08:41:20.732Z,3.97
2023-01-07T08:43:50.377Z,6.37
2023-01-07T08:46:18.579Z,3.63
2023-01-07T08:48:46.270Z,3.73
2023-01-07T08:51:13.962Z,4.10
2023-01-07T08:53:41.679Z,4.20
2023-01-07T08:56:09.647Z,4.13
2023-01-07T08:58:38.814Z,4.03
2023-01-07T09:01:08.312Z,5.50
2023-01-07T09:03:36.155Z,4.27
2023-01-07T09:06:03.867Z,3.90
2023-01-07T09:08:31.691Z,3.33
2023-01-07T09:10:59.849Z,3.37
2023-01-07T09:13:27.560Z,4.10
2023-01-07T09:15:55.263Z,4.70
2023-01-07T09:18:24.274Z,3.30
2023-01-07T09:20:52.377Z,4.20
2023-01-07T09:23:20.051Z,3.27
2023-01-07T09:25:47.907Z,3.97
2023-01-07T09:28:16.133Z,2.97
2023-01-07T09:30:44.050Z,3.70
2023-01-07T09:33:12.494Z,7.93
2023-01-07T09:35:41.705Z,4.00
2023-01-07T09:38:09.795Z,4.27
2023-01-07T09:40:38.542Z,3.83
2023-01-07T09:43:09.292Z,3.00
2023-01-07T09:45:38.519Z,3.13
2023-01-07T09:48:07.864Z,2.83
2023-01-07T09:50:46.854Z,3.10
2023-01-07T09:53:16.151Z,3.00
2023-01-07T09:56:10.845Z,2.23
2023-01-07T09:58:31.963Z,3.67
2023-01-07T10:01:04.165Z,2.53
2023-01-07T10:03:42.086Z,3.90
2023-01-07T10:06:13.172Z,2.87
2023-01-07T10:08:46.625Z,2.37
2023-01-07T10:11:19.604Z,2.80
2023-01-07T10:14:01.047Z,3.17
2023-01-07T10:16:31.909Z,2.47
2023-01-07T10:19:01.709Z,2.00
2023-01-07T10:21:37.837Z,1.80
2023-01-07T10:24:09.552Z,2.10
2023-01-07T10:26:39.516Z,2.00
2023-01-07T10:29:09.131Z,2.30
2023-01-07T10:31:37.149Z,1.50
2023-01-07T10:34:07.737Z,2.20
2023-01-07T10:36:39.386Z,2.67
2023-01-07T10:39:15.071Z,1.87
2023-01-07T10:41:47.565Z,3.93
2023-01-07T10:44:45.427Z,1.93
2023-01-07T10:47:18.071Z,2.07
2023-01-07T10:49:54.767Z,1.50
2023-01-07T10:52:33.036Z,1.60
2023-01-07T10:55:28.987Z,2.60
2023-01-07T10:57:57.176Z,2.27
2023-01-07T11:00:25.218Z,1.43
2023-01-07T11:02:56.154Z,1.50
2023-01-07T11:05:25.011Z,1.70
2023-01-07T11:07:55.280Z,1.67
2023-01-07T11:10:24.231Z,1.83
2023-01-07T11:12:54.177Z,1.70
2023-01-07T11:15:23.272Z,3.03
2023-01-07T11:17:53.400Z,1.70
2023-01-07T11:20:42.519Z,2.30
2023-01-07T11:23:32.130Z,1.53
2023-01-07T11:26:24.423Z,1.60
2023-01-07T11:28:54.162Z,1.67
2023-01-07T11:31:22.090Z,1.90
2023-01-07T11:34:03.107Z,1.57
2023-01-07T11:36:41.674Z,1.70
2023-01-07T11:39:19.930Z,2.40
2023-01-07T11:41:55.485Z,1.40
2023-01-07T11:44:23.881Z,1.60
2023-01-07T11:46:51.642Z,1.70
2023-01-07T11:49:25.547Z,1.60
2023-01-07T11:51:53.489Z,1.60
2023-01-07T11:54:23.707Z,1.70
2023-01-07T11:56:54.174Z,1.57
2023-01-07T11:59:29.274Z,3.03
2023-01-07T12:01:59.435Z,1.10
2023-01-07T12:04:28.891Z,1.83
2023-01-07T12:06:57.754Z,1.50
2023-01-07T12:09:29.225Z,1.70
2023-01-07T12:11:58.598Z,1.20
2023-01-07T12:14:28.411Z,3.57
2023-01-07T12:16:56.436Z,1.77
2023-01-07T12:19:32.012Z,1.30
2023-01-07T12:22:06.919Z,1.37
2023-01-07T12:24:47.003Z,1.40
2023-01-07T12:27:24.213Z,6.00
2023-01-07T12:29:59.048Z,1.53
2023-01-07T12:32:34.040Z,1.27
2023-01-07T12:35:15.048Z,1.40
2023-01-07T12:37:44.747Z,1.33
2023-01-07T12:40:20.135Z,1.40
2023-01-07T12:42:51.983Z,2.00
2023-01-07T12:45:22.813Z,1.43
2023-01-07T12:47:52.447Z,2.37
2023-01-07T12:50:24.417Z,1.90
2023-01-07T12:52:53.680Z,1.20
2023-01-07T12:55:23.834Z,4.87
2023-01-07T12:58:00.082Z,1.40
2023-01-07T13:00:28.595Z,1.20
2023-01-07T13:02:59.793Z,1.50
2023-01-07T13:05:28.991Z,1.97
2023-01-07T13:07:58.612Z,1.47
2023-01-07T13:10:29.558Z,1.57
2023-01-07T13:12:58.989Z,1.20
2023-01-07T13:15:28.036Z,1.37
2023-01-07T13:17:56.474Z,2.77
2023-01-07T13:20:39.828Z,1.50
2023-01-07T13:23:09.267Z,1.60
2023-01-07T13:25:45.486Z,2.97
2023-01-07T13:28:29.759Z,1.40
2023-01-07T13:31:11.229Z,1.10
2023-01-07T13:33:43.074Z,1.03
2023-01-07T13:36:21.574Z,1.27
2023-01-07T13:39:00.314Z,1.20
2023-01-07T13:41:35.756Z,1.27
2023-01-07T13:44:54.419Z,1.10
2023-01-07T13:47:23.920Z,1.60
2023-01-07T13:49:56.288Z,1.77
2023-01-07T13:52:25.403Z,1.00
2023-01-07T13:54:57.494Z,1.63
2023-01-07T13:57:45.855Z,2.07
2023-01-07T14:00:45.508Z,1.70
2023-01-07T14:03:45.691Z,1.27
2023-01-07T14:06:44.858Z,1.57
2023-01-07T14:09:35.868Z,1.70
2023-01-07T14:12:34.850Z,3.13
2023-01-07T14:15:36.147Z,1.40
2023-01-07T14:18:57.900Z,1.40
2023-01-07T14:21:37.232Z,1.57
2023-01-07T14:24:30.719Z,2.60
2023-01-07T14:27:00.353Z,2.47
2023-01-07T14:29:46.652Z,1.27
2023-01-07T14:32:39.161Z,1.70
2023-01-07T14:35:08.391Z,1.77
2023-01-07T14:37:38.301Z,1.50
2023-01-07T14:40:42.534Z,1.40
2023-01-07T14:44:02.044Z,1.57
2023-01-07T14:46:49.169Z,3.30
2023-01-07T14:49:45.044Z,1.70
2023-01-07T14:52:19.401Z,1.30
2023-01-07T14:55:19.471Z,1.50
2023-01-07T14:57:53.015Z,1.30
2023-01-07T15:00:31.499Z,1.57
2023-01-07T15:03:10.725Z,1.80
2023-01-07T15:06:01.959Z,1.67
2023-01-07T15:09:00.278Z,1.47
2023-01-07T15:11:47.103Z,1.50
2023-01-07T15:14:38.827Z,2.07
2023-01-07T15:17:07.175Z,1.43
2023-01-07T15:19:38.062Z,7.87
2023-01-07T15:22:10.308Z,1.40
2023-01-07T15:24:40.333Z,1.23
2023-01-07T15:27:11.983Z,1.43
2023-01-07T15:29:43.873Z,2.27
2023-01-07T15:32:18.260Z,1.43
2023-01-07T15:34:45.966Z,1.53
2023-01-07T15:37:14.187Z,3.20
2023-01-07T15:39:45.604Z,2.60
2023-01-07T15:42:16.148Z,2.30
2023-01-07T15:44:43.903Z,2.83
2023-01-07T15:47:37.868Z,3.00
2023-01-07T15:50:23.544Z,2.43
2023-01-07T15:52:51.600Z,2.47
2023-01-07T15:55:27.519Z,2.60
2023-01-07T15:58:01.179Z,2.50
2023-01-07T16:00:29.584Z,2.33
2023-01-07T16:02:57.407Z,2.33
2023-01-07T16:05:26.733Z,2.37
2023-01-07T16:07:55.312Z,2.07
2023-01-07T16:10:24.575Z,2.83
2023-01-07T16:12:52.835Z,2.10
2023-01-07T16:15:27.397Z,2.73
2023-01-07T16:17:56.072Z,3.40
2023-01-07T16:20:27.622Z,2.30
2023-01-07T16:23:13.973Z,2.27
2023-01-07T16:25:44.076Z,2.30
2023-01-07T16:28:12.963Z,2.07
2023-01-07T16:30:41.964Z,2.30
2023-01-07T16:33:11.083Z,2.10
2023-01-07T16:35:38.761Z,2.20
2023-01-07T16:38:06.496Z,2.60
2023-01-07T16:40:36.061Z,2.33
2023-01-07T16:43:04.476Z,2.00
2023-01-07T16:45:33.231Z,2.17
2023-01-07T16:48:19.259Z,2.10
2023-01-07T16:50:47.432Z,2.50
2023-01-07T16:53:23.127Z,2.50
2023-01-07T16:55:51.600Z,2.50
2023-01-07T16:58:26.778Z,2.20
2023-01-07T17:00:55.299Z,2.13
2023-01-07T17:03:24.736Z,2.80
2023-01-07T17:05:59.147Z,2.80
2023-01-07T17:08:26.854Z,2.57
2023-01-07T17:10:59.018Z,2.27
2023-01-07T17:13:35.391Z,2.57
2023-01-07T17:16:31.866Z,2.30
2023-01-07T17:19:26.464Z,2.30
2023-01-07T17:21:54.314Z,2.27
2023-01-07T17:24:23.946Z,2.60
2023-01-07T17:26:51.800Z,2.37
2023-01-07T17:29:20.230Z,2.40
2023-01-07T17:31:48.280Z,2.27
2023-01-07T17:34:17.911Z,2.47
2023-01-07T17:36:47.230Z,2.63
2023-01-07T17:39:15.083Z,2.63
2023-01-07T17:42:00.667Z,2.20
2023-01-07T17:44:28.767Z,2.17
2023-01-07T17:46:56.453Z,2.87
2023-01-07T17:49:24.534Z,3.00
2023-01-07T17:51:54.924Z,2.87
2023-01-07T17:54:23.608Z,1.97
2023-01-07T17:56:52.073Z,2.90
2023-01-07T17:59:20.528Z,2.73
2023-01-07T18:01:48.485Z,2.80
2023-01-07T18:04:17.583Z,2.50
2023-01-07T18:06:45.985Z,2.20
2023-01-07T18:09:15.025Z,2.67
2023-01-07T18:12:01.623Z,2.63
2023-01-07T18:14:29.304Z,2.70
2023-01-07T18:16:57.446Z,2.93
2023-01-07T18:19:25.156Z,2.83
2023-01-07T18:21:52.875Z,2.57
2023-01-07T18:24:22.646Z,3.50
2023-01-07T18:26:50.354Z,2.43
2023-01-07T18:29:18.479Z,2.73
2023-01-07T18:31:46.434Z,3.00
2023-01-07T18:34:15.915Z,2.20
2023-01-07T18:36:43.840Z,2.37
2023-01-07T18:39:12.622Z,2.70
2023-01-07T18:41:42.041Z,2.73
2023-01-07T18:44:10.515Z,2.33
2023-01-07T18:46:38.400Z,2.70
2023-01-07T18:49:06.268Z,2.20
2023-01-07T18:51:34.218Z,2.50
2023-01-07T18:54:02.081Z,3.57
2023-01-07T18:56:30.153Z,2.80
2023-01-07T18:58:59.446Z,2.53
2023-01-07T19:01:27.821Z,2.10
2023-01-07T19:03:56.921Z,3.37
2023-01-07T19:06:24.974Z,2.37
2023-01-07T19:08:52.642Z,2.63
2023-01-07T19:11:20.567Z,3.00
2023-01-07T19:13:48.913Z,2.73
2023-01-07T19:16:18.115Z,2.90
2023-01-07T19:18:46.230Z,2.37
2023-01-07T19:21:14.421Z,2.50
2023-01-07T19:23:42.540Z,2.80
2023-01-07T19:26:10.726Z,3.13
2023-01-07T19:28:38.900Z,2.67
2023-01-07T19:31:07.563Z,2.67
2023-01-07T19:33:36.985Z,2.60
2023-01-07T19:36:05.757Z,4.23
2023-01-07T19:38:33.737Z,2.63
2023-01-07T19:41:02.096Z,2.50
2023-01-07T19:43:29.947Z,3.07
2023-01-07T19:45:57.712Z,2.70
2023-01-07T19:48:26.031Z,2.70
2023-01-07T19:50:56.321Z,2.83
2023-01-07T19:53:24.702Z,2.53
2023-01-07T19:55:54.087Z,2.70
2023-01-07T19:58:22.625Z,2.80
2023-01-07T20:00:50.655Z,2.50
2023-01-07T20:03:19.000Z,2.63
2023-01-07T20:05:46.931Z,2.97
2023-01-07T20:08:16.204Z,3.13
2023-01-07T20:10:43.970Z,4.50
2023-01-07T20:13:11.656Z,2.63
2023-01-07T20:15:39.304Z,2.83
2023-01-07T20:18:07.191Z,2.40
2023-01-07T20:20:34.867Z,3.13
2023-01-07T20:23:02.546Z,2.77
2023-01-07T20:25:31.968Z,2.80
2023-01-07T20:27:59.818Z,2.63
2023-01-07T20:30:28.240Z,3.30
2023-01-07T20:32:56.353Z,2.97
2023-01-07T20:35:24.996Z,2.47
2023-01-07T20:37:52.858Z,2.70
2023-01-07T20:40:21.103Z,2.90
2023-01-07T20:42:50.437Z,3.33
2023-01-07T20:45:18.311Z,3.17
2023-01-07T20:47:46.746Z,2.97
2023-01-07T20:50:15.310Z,2.80
2023-01-07T20:52:43.712Z,3.07
2023-01-07T20:55:11.757Z,3.47
2023-01-07T20:57:40.456Z,3.13
2023-01-07T21:00:11.561Z,3.23
2023-01-07T21:02:39.990Z,3.03
2023-01-07T21:05:08.924Z,3.67
2023-01-07T21:07:37.120Z,2.70
2023-01-07T21:10:05.456Z,2.97
2023-01-07T21:12:33.163Z,2.97
2023-01-07T21:15:00.866Z,3.27
2023-01-07T21:17:29.887Z,3.17
2023-01-07T21:19:58.166Z,3.00
2023-01-07T21:22:25.862Z,3.00
2023-01-07T21:24:54.268Z,3.67
2023-01-07T21:27:22.031Z,3.20
2023-01-07T21:29:51.449Z,4.40
2023-01-07T21:32:19.148Z,3.20
2023-01-07T21:34:48.815Z,3.70
2023-01-07T21:37:16.518Z,2.93
2023-01-07T21:39:44.600Z,2.67
2023-01-07T21:42:12.563Z,3.23
2023-01-07T21:44:40.434Z,3.10
2023-01-07T21:47:08.817Z,2.90
2023-01-07T21:49:36.622Z,3.63
2023-01-07T21:52:06.338Z,3.37
2023-01-07T21:54:34.387Z,2.93
2023-01-07T21:57:02.088Z,3.07
2023-01-07T21:59:29.767Z,3.70
2023-01-07T22:01:57.722Z,3.10
2023-01-07T22:04:26.897Z,3.40
2023-01-07T22:06:55.177Z,2.73
2023-01-07T22:09:25.289Z,3.00
2023-01-07T22:11:53.266Z,3.77
2023-01-07T22:14:21.177Z,3.80
2023-01-07T22:16:49.422Z,3.13
2023-01-07T22:19:17.379Z,3.30
2023-01-07T22:21:45.180Z,5.20
2023-01-07T22:24:14.756Z,2.70
2023-01-07T22:26:43.979Z,2.97
2023-01-07T22:29:12.219Z,3.03
2023-01-07T22:31:40.053Z,3.00
2023-01-07T22:34:08.169Z,3.13
2023-01-07T22:36:38.804Z,3.03
2023-01-07T22:39:10.144Z,2.80
2023-01-07T22:41:37.827Z,3.20
2023-01-07T22:44:08.957Z,2.93
2023-01-07T22:46:36.645Z,4.87
2023-01-07T22:49:04.633Z,3.50
2023-01-07T22:51:37.915Z,3.03
2023-01-07T22:54:06.459Z,2.83
2023-01-07T22:56:34.910Z,3.50
2023-01-07T22:59:02.633Z,3.00
2023-01-07T23:01:32.478Z,3.00
2023-01-07T23:04:00.295Z,3.03
2023-01-07T23:06:28.430Z,2.93
2023-01-07T23:08:56.176Z,3.33
2023-01-07T23:11:41.855Z,3.10
2023-01-07T23:14:09.541Z,3.60
2023-01-07T23:16:39.072Z,3.93
2023-01-07T23:19:06.848Z,2.97
2023-01-07T23:21:36.768Z,2.93
2023-01-07T23:24:04.969Z,2.67
2023-01-07T23:26:32.744Z,2.60
2023-01-07T23:29:00.610Z,3.27
2023-01-07T23:31:28.492Z,3.40
2023-01-07T23:33:58.297Z,3.03
2023-01-07T23:36:26.264Z,3.23
2023-01-07T23:38:54.521Z,4.07
2023-01-07T23:41:22.395Z,3.30
2023-01-07T23:43:50.935Z,3.07
2023-01-07T23:46:18.810Z,2.93
2023-01-07T23:48:47.036Z,2.40
2023-01-07T23:51:16.910Z,2.90
2023-01-07T23:53:45.081Z,3.77
2023-01-07T23:56:13.198Z,3.03
2023-01-07T23:58:41.300Z,3.23
